Relevés horaires Chievres (Belgique)


Relevés horaires à Chievres - Dimanche 01 Oct. 2017
Heure UTC1 Température [°C] Vent [km/h] Hum. [%] Pres.4 [hPa] Visi. [Km] Nébu. [octa] Préc.5 [mm] Cond.
2m. Res. Ros. Dir.2 Vit. Moy. Raf.3
23:00 14.6 13.8 13.8 S 13.0 -- 18.5 95 1014.7(-1.2/3h) 12 -- -- NA
22:00 14.3 13.6 13.6 S 11.1 -- 20.4 96 1015.7(-1.0/3h) 19 -- -- NA
21:00 14.3 13.4 13.5 S 13.0 -- 22.2 95 1016(-0.8/3h) 14 -- -- Il y a une bruine faible et continue à la station au moment de l'observation
20:00 14.6 13.8 13.3 S 13.0 -- 18.5 92 1016(-0.7/3h) 20 -- -- --
19:00 14.1 13.4 12.9 S 11.1 -- 16.7 92 1016.7(-0.2/3h) 20 -- -- --
18:00 14.0 13.3 12.6 S 11.1 -- 24.1 91 1016.7(-0.4/3h) 20 -- 0.1/12h
--
17:00 14.4 13.5 12.2 S 13.0 -- 18.5 87 1016.7(-0.8/3h) 20 -- -- --
16:00 14.8 14.2 12.1 S 11.1 -- 18.5 84 1017(-0.3/3h) 20 -- -- --
15:00 15.1 14.4 11.9 S 13.0 -- 24.1 81 1017.2(-0.6/3h) 20 -- -- --
14:00 15.6 14.8 11.8 SSO 14.8 -- 22.2 78 1017.6(-0.6/3h) 20 -- -- --
13:00 15.9 15.4 11.5 SSO 13.0 -- 24.1 75 1017.2(-1.1/3h) 20 -- -- --
12:00 15.8 15.2 10.7 S 13.0 -- 22.2 72 1017.7(-0.8/3h) 20 -- 0.1/6h
NA
11:00 15.6 14.8 10.1 SSO 14.8 -- 20.4 70 1018.2(-0.4/3h) 20 -- -- --
10:00 14.8 14 10.8 S 13.0 -- 18.5 77 1018.5(0.1/3h) 20 -- -- --
09:00 13.8 13.3 10.4 S 9.3 -- 14.8 80 1018.7(0.0/3h) 20 -- -- NA
08:00 13.3 12.4 10.0 S 11.1 -- 14.8 80 1018.7(0.0/3h) 20 -- -- NA
07:00 12.6 12.2 9.9 S 7.4 -- 11.1 84 1018.6(-0.4/3h) 20 -- -- --
06:00 12.0 11.9 9.8 SSE 5.6 -- 11.1 86 1018.7(-0.3/3h) 20 -- -- --
05:00 12.0 11.5 9.7 SSE 7.4 -- 11.1 86 1018.7(-0.2/3h) 20 -- -- --
04:00 11.7 11.5 9.6 SSE 5.6 -- 9.3 87 1019.1(-0.2/3h) 19 -- -- --
03:00 11.5 11.3 9.5 S 5.6 -- 9.3 88 1019.1(0.2/3h) 20 -- -- --
02:00 11.6 11 9.4 S 7.4 -- 9.3 86 1019(0.0/3h) 20 -- -- --
01:00 12.3 12.2 9.5 SSE 5.6 -- 9.3 83 1019.2(0.0/3h) 20 -- -- --
00:00 12.6 12.6 9.4 SSE 5.6 -- 9.3 81 1018.7(-0.7/3h) 20 -- -- --

1 Coordinated Universal Time. Actuellement il est 13:00 locale et 11:00 UTC.

2 Le vent souffle depuis la direction indiquée vers la direction oposée.

3 Les rafales max. sont disponible 40 min après l'heure du relevé.

4 Pour les stations d'altitude (plus de 600m) le géopotentiel du niveau le plus proche de la pression obligatoire est indiqué.

5 Les stations disposant d'un diffuseur peuvent indiquer "trace". Cela signifie que des précipitations ont touchés le sol mais que la quantité est inférieure à 0.1 mm.

Récapitulatif de la journée
Température [°C] Vent [km/h] Ensoleillement4 [h] Precipitations totale5 [mm] Pression [Hpa]
Min1 Max.2 Moy.3 Max. Min Max.
10.8 16.0 0 24.1 0 h 0 min 0 1014.7 1019.2

1 Température minimale relevée entre 18:00 UTC la veille et 18:00 UTC le jour donné.

2 Température maximale relevée entre 06:00 UTC le jour donné et 06:00 UTC le lendemain.

3 Vent moyen de la journée basé sur les relevés horaires.

4 Ensoleillement en heures relevé entre 06:00 UTC la veille et 06:00 UTC le jour donné.

5 Précipitations totales tombées entre 06:00 UTC la jour donné et 06:00 UTC le lendemain.

Graphiques horaires